sensor_id;sensor_type;location;lat;lon;timestamp;pressure;altitude;pressure_sealevel;temperature;humidity
47274;BME280;33007;49.082;19.306;2022-07-23T00:02:25;96308.13;;;18.76;81.96
47274;BME280;33007;49.082;19.306;2022-07-23T00:04:50;96323.25;;;18.89;81.89
47274;BME280;33007;49.082;19.306;2022-07-23T00:07:16;96320.50;;;18.89;81.93
47274;BME280;33007;49.082;19.306;2022-07-23T00:09:42;96324.84;;;18.78;82.15
47274;BME280;33007;49.082;19.306;2022-07-23T00:12:08;96312.38;;;18.77;81.81
47274;BME280;33007;49.082;19.306;2022-07-23T00:14:34;96325.41;;;18.71;82.39
47274;BME280;33007;49.082;19.306;2022-07-23T00:17:00;96315.84;;;18.78;82.52
47274;BME280;33007;49.082;19.306;2022-07-23T00:19:25;96311.00;;;18.59;82.48
47274;BME280;33007;49.082;19.306;2022-07-23T00:21:51;96319.94;;;18.66;82.79
47274;BME280;33007;49.082;19.306;2022-07-23T00:24:16;96308.56;;;18.50;82.75
47274;BME280;33007;49.082;19.306;2022-07-23T00:26:42;96329.44;;;18.70;82.01
47274;BME280;33007;49.082;19.306;2022-07-23T00:29:08;96334.75;;;18.57;82.94
47274;BME280;33007;49.082;19.306;2022-07-23T00:31:33;96331.94;;;18.68;82.71
47274;BME280;33007;49.082;19.306;2022-07-23T00:33:59;96347.47;;;18.60;83.19
47274;BME280;33007;49.082;19.306;2022-07-23T00:36:27;96342.47;;;18.58;83.58
47274;BME280;33007;49.082;19.306;2022-07-23T00:38:53;96338.09;;;18.44;83.57
47274;BME280;33007;49.082;19.306;2022-07-23T00:41:19;96356.22;;;18.58;84.09
47274;BME280;33007;49.082;19.306;2022-07-23T00:43:45;96330.34;;;18.43;83.57
47274;BME280;33007;49.082;19.306;2022-07-23T00:46:11;96358.97;;;18.58;83.83
47274;BME280;33007;49.082;19.306;2022-07-23T00:48:36;96357.81;;;18.48;83.85
47274;BME280;33007;49.082;19.306;2022-07-23T00:51:02;96344.41;;;18.33;83.94
47274;BME280;33007;49.082;19.306;2022-07-23T00:53:28;96347.59;;;18.43;83.43
47274;BME280;33007;49.082;19.306;2022-07-23T00:55:54;96357.81;;;18.43;83.80
47274;BME280;33007;49.082;19.306;2022-07-23T00:58:20;96353.47;;;18.23;84.50
47274;BME280;33007;49.082;19.306;2022-07-23T01:00:46;96364.66;;;18.30;84.80
47274;BME280;33007;49.082;19.306;2022-07-23T01:03:11;96363.31;;;18.48;83.78
47274;BME280;33007;49.082;19.306;2022-07-23T01:05:37;96367.50;;;18.55;83.77
47274;BME280;33007;49.082;19.306;2022-07-23T01:08:05;96351.22;;;18.27;83.55
47274;BME280;33007;49.082;19.306;2022-07-23T01:10:31;96339.78;;;18.17;84.26
47274;BME280;33007;49.082;19.306;2022-07-23T01:13:00;96350.53;;;18.10;84.65
47274;BME280;33007;49.082;19.306;2022-07-23T01:15:27;96350.53;;;18.10;84.47
47274;BME280;33007;49.082;19.306;2022-07-23T01:17:53;96351.06;;;18.08;84.46
47274;BME280;33007;49.082;19.306;2022-07-23T01:20:19;96360.25;;;18.11;85.77
47274;BME280;33007;49.082;19.306;2022-07-23T01:22:45;96359.31;;;18.02;85.50
47274;BME280;33007;49.082;19.306;2022-07-23T01:25:11;96340.66;;;17.90;85.67
47274;BME280;33007;49.082;19.306;2022-07-23T01:27:36;96327.41;;;17.88;85.94
47274;BME280;33007;49.082;19.306;2022-07-23T01:30:03;96342.38;;;17.93;85.83
47274;BME280;33007;49.082;19.306;2022-07-23T01:32:29;96321.22;;;17.82;85.90
47274;BME280;33007;49.082;19.306;2022-07-23T01:34:55;96325.72;;;17.79;86.69
47274;BME280;33007;49.082;19.306;2022-07-23T01:37:20;96322.22;;;17.68;86.82
47274;BME280;33007;49.082;19.306;2022-07-23T01:39:46;96336.44;;;17.72;87.13
47274;BME280;33007;49.082;19.306;2022-07-23T01:42:11;96333.97;;;17.68;86.88
47274;BME280;33007;49.082;19.306;2022-07-23T01:44:37;96328.75;;;17.65;87.66
47274;BME280;33007;49.082;19.306;2022-07-23T01:47:03;96332.25;;;17.65;87.47
47274;BME280;33007;49.082;19.306;2022-07-23T01:49:28;96329.47;;;17.71;87.24
47274;BME280;33007;49.082;19.306;2022-07-23T01:51:54;96337.19;;;17.78;87.59
47274;BME280;33007;49.082;19.306;2022-07-23T01:54:31;96330.97;;;17.72;86.92
47274;BME280;33007;49.082;19.306;2022-07-23T01:56:57;96326.22;;;17.67;87.63
47274;BME280;33007;49.082;19.306;2022-07-23T01:59:23;96347.72;;;17.74;88.00
47274;BME280;33007;49.082;19.306;2022-07-23T02:01:49;96325.56;;;17.49;88.12
47274;BME280;33007;49.082;19.306;2022-07-23T02:04:21;96331.25;;;17.57;88.46
47274;BME280;33007;49.082;19.306;2022-07-23T02:06:49;96316.81;;;17.45;88.42
47274;BME280;33007;49.082;19.306;2022-07-23T02:09:15;96351.47;;;17.65;89.05
47274;BME280;33007;49.082;19.306;2022-07-23T02:11:41;96321.81;;;17.47;89.00
47274;BME280;33007;49.082;19.306;2022-07-23T02:14:07;96322.06;;;17.49;88.95
47274;BME280;33007;49.082;19.306;2022-07-23T02:16:32;96328.56;;;17.46;88.27
47274;BME280;33007;49.082;19.306;2022-07-23T02:18:58;96316.63;;;17.38;88.37
47274;BME280;33007;49.082;19.306;2022-07-23T02:21:24;96323.56;;;17.44;88.86
47274;BME280;33007;49.082;19.306;2022-07-23T02:23:49;96314.38;;;17.31;89.12
47274;BME280;33007;49.082;19.306;2022-07-23T02:26:15;96332.06;;;17.41;88.99
47274;BME280;33007;49.082;19.306;2022-07-23T02:28:41;96329.81;;;17.39;89.46
47274;BME280;33007;49.082;19.306;2022-07-23T02:31:06;96326.88;;;17.32;90.06
47274;BME280;33007;49.082;19.306;2022-07-23T02:33:32;96318.13;;;17.33;89.86
47274;BME280;33007;49.082;19.306;2022-07-23T02:35:59;96342.78;;;17.50;89.80
47274;BME280;33007;49.082;19.306;2022-07-23T02:38:25;96325.09;;;17.34;90.12
47274;BME280;33007;49.082;19.306;2022-07-23T02:40:51;96325.59;;;17.38;89.84
47274;BME280;33007;49.082;19.306;2022-07-23T02:43:16;96331.78;;;17.50;89.02
47274;BME280;33007;49.082;19.306;2022-07-23T02:45:42;96341.00;;;17.58;89.13
47274;BME280;33007;49.082;19.306;2022-07-23T02:48:08;96335.81;;;17.43;89.74
47274;BME280;33007;49.082;19.306;2022-07-23T02:50:34;96334.31;;;17.48;89.42
47274;BME280;33007;49.082;19.306;2022-07-23T02:52:59;96331.56;;;17.42;89.65
47274;BME280;33007;49.082;19.306;2022-07-23T02:55:25;96337.56;;;17.41;90.29
47274;BME280;33007;49.082;19.306;2022-07-23T02:57:51;96335.81;;;17.43;89.85
47274;BME280;33007;49.082;19.306;2022-07-23T03:00:16;96327.13;;;17.28;90.37
47274;BME280;33007;49.082;19.306;2022-07-23T03:02:42;96317.88;;;17.20;89.60
47274;BME280;33007;49.082;19.306;2022-07-23T03:05:08;96347.06;;;17.34;90.36
47274;BME280;33007;49.082;19.306;2022-07-23T03:07:34;96322.91;;;17.16;90.51
47274;BME280;33007;49.082;19.306;2022-07-23T03:10:00;96346.31;;;17.34;89.30
47274;BME280;33007;49.082;19.306;2022-07-23T03:12:26;96334.13;;;17.18;90.28
47274;BME280;33007;49.082;19.306;2022-07-23T03:14:52;96342.34;;;17.18;89.99
47274;BME280;33007;49.082;19.306;2022-07-23T03:17:17;96329.16;;;17.05;89.92
47274;BME280;33007;49.082;19.306;2022-07-23T03:19:43;96301.50;;;16.86;90.64
47274;BME280;33007;49.082;19.306;2022-07-23T03:22:09;96330.66;;;17.12;90.49
47274;BME280;33007;49.082;19.306;2022-07-23T03:24:35;96351.06;;;17.33;90.02
47274;BME280;33007;49.082;19.306;2022-07-23T03:27:20;96359.31;;;17.27;90.92
47274;BME280;33007;49.082;19.306;2022-07-23T03:29:46;96341.59;;;17.23;90.79
47274;BME280;33007;49.082;19.306;2022-07-23T03:32:11;96343.84;;;17.19;91.10
47274;BME280;33007;49.082;19.306;2022-07-23T03:34:38;96333.88;;;17.16;90.60
47274;BME280;33007;49.082;19.306;2022-07-23T03:37:04;96332.84;;;17.24;90.84
47274;BME280;33007;49.082;19.306;2022-07-23T03:39:30;96346.09;;;17.26;90.75
47274;BME280;33007;49.082;19.306;2022-07-23T03:41:55;96321.63;;;17.22;91.38
47274;BME280;33007;49.082;19.306;2022-07-23T03:44:21;96332.09;;;17.24;90.80
47274;BME280;33007;49.082;19.306;2022-07-23T03:46:46;96332.09;;;17.24;90.66
47274;BME280;33007;49.082;19.306;2022-07-23T03:49:12;96333.88;;;17.21;91.33
47274;BME280;33007;49.082;19.306;2022-07-23T03:51:38;96347.06;;;17.34;91.25
47274;BME280;33007;49.082;19.306;2022-07-23T03:54:04;96328.84;;;17.37;90.34
47274;BME280;33007;49.082;19.306;2022-07-23T03:56:29;96339.50;;;17.51;89.28
47274;BME280;33007;49.082;19.306;2022-07-23T03:58:55;96330.72;;;17.70;89.08
47274;BME280;33007;49.082;19.306;2022-07-23T04:01:20;96321.78;;;17.58;89.23
47274;BME280;33007;49.082;19.306;2022-07-23T04:03:46;96331.28;;;17.51;89.39
47274;BME280;33007;49.082;19.306;2022-07-23T04:06:12;96322.84;;;17.44;89.33
47274;BME280;33007;49.082;19.306;2022-07-23T04:08:38;96324.09;;;17.43;90.27
47274;BME280;33007;49.082;19.306;2022-07-23T04:11:03;96303.84;;;17.46;88.54
47274;BME280;33007;49.082;19.306;2022-07-23T04:13:29;96303.06;;;17.57;88.61
47274;BME280;33007;49.082;19.306;2022-07-23T04:15:55;96311.25;;;17.73;88.74
47274;BME280;33007;49.082;19.306;2022-07-23T04:18:21;96324.44;;;17.86;88.35
47274;BME280;33007;49.082;19.306;2022-07-23T04:20:50;96320.50;;;17.70;89.46
47274;BME280;33007;49.082;19.306;2022-07-23T04:23:16;96296.28;;;17.69;88.74
47274;BME280;33007;49.082;19.306;2022-07-23T04:25:42;96294.78;;;17.68;88.90
47274;BME280;33007;49.082;19.306;2022-07-23T04:28:08;96331.09;;;18.02;89.72
47274;BME280;33007;49.082;19.306;2022-07-23T04:30:33;96318.38;;;17.99;88.29
47274;BME280;33007;49.082;19.306;2022-07-23T04:32:59;96320.13;;;18.02;88.52
47274;BME280;33007;49.082;19.306;2022-07-23T04:35:25;96334.78;;;18.10;88.67
47274;BME280;33007;49.082;19.306;2022-07-23T04:37:51;96314.09;;;18.03;89.08
47274;BME280;33007;49.082;19.306;2022-07-23T04:40:17;96305.78;;;18.15;89.05
47274;BME280;33007;49.082;19.306;2022-07-23T04:42:43;96295.09;;;18.11;88.35
47274;BME280;33007;49.082;19.306;2022-07-23T04:45:08;96306.47;;;18.26;88.34
47274;BME280;33007;49.082;19.306;2022-07-23T04:47:34;96311.72;;;18.24;88.64
47274;BME280;33007;49.082;19.306;2022-07-23T04:50:00;96303.50;;;18.24;88.16
47274;BME280;33007;49.082;19.306;2022-07-23T04:52:25;96300.44;;;18.33;88.50
47274;BME280;33007;49.082;19.306;2022-07-23T04:54:51;96300.13;;;18.37;87.08
47274;BME280;33007;49.082;19.306;2022-07-23T04:57:16;96322.25;;;18.56;86.68
47274;BME280;33007;49.082;19.306;2022-07-23T04:59:42;96284.38;;;18.43;86.22
47274;BME280;33007;49.082;19.306;2022-07-23T05:02:07;96302.50;;;18.57;85.91
47274;BME280;33007;49.082;19.306;2022-07-23T05:04:33;96319.03;;;18.88;86.02
47274;BME280;33007;49.082;19.306;2022-07-23T05:06:59;96303.03;;;18.86;86.02
47274;BME280;33007;49.082;19.306;2022-07-23T05:09:25;96317.72;;;18.94;85.39
47274;BME280;33007;49.082;19.306;2022-07-23T05:11:50;96313.94;;;18.97;84.24
47274;BME280;33007;49.082;19.306;2022-07-23T05:14:16;96307.34;;;19.06;84.55
47274;BME280;33007;49.082;19.306;2022-07-23T05:16:42;96323.41;;;19.26;83.31
47274;BME280;33007;49.082;19.306;2022-07-23T05:19:08;96308.00;;;19.18;83.29
47274;BME280;33007;49.082;19.306;2022-07-23T05:21:33;96313.44;;;19.23;83.13
47274;BME280;33007;49.082;19.306;2022-07-23T05:23:59;96316.13;;;19.29;83.50
47274;BME280;33007;49.082;19.306;2022-07-23T05:26:25;96290.63;;;19.28;83.20
47274;BME280;33007;49.082;19.306;2022-07-23T05:28:51;96291.84;;;19.27;82.76
47274;BME280;33007;49.082;19.306;2022-07-23T05:31:17;96321.31;;;19.57;82.10
47274;BME280;33007;49.082;19.306;2022-07-23T05:33:43;96322.06;;;19.57;82.66
47274;BME280;33007;49.082;19.306;2022-07-23T05:36:09;96304.69;;;19.44;81.80
47274;BME280;33007;49.082;19.306;2022-07-23T05:38:35;96300.09;;;19.52;81.49
47274;BME280;33007;49.082;19.306;2022-07-23T05:41:01;96295.13;;;19.50;81.05
47274;BME280;33007;49.082;19.306;2022-07-23T05:43:27;96283.78;;;19.54;80.70
47274;BME280;33007;49.082;19.306;2022-07-23T05:45:52;96300.72;;;19.63;80.23
47274;BME280;33007;49.082;19.306;2022-07-23T05:48:18;96285.75;;;19.59;80.68
47274;BME280;33007;49.082;19.306;2022-07-23T05:50:44;96306.34;;;19.77;78.21
47274;BME280;33007;49.082;19.306;2022-07-23T05:53:10;96268.00;;;19.54;79.90
47274;BME280;33007;49.082;19.306;2022-07-23T05:55:35;96279.00;;;19.60;80.74
47274;BME280;33007;49.082;19.306;2022-07-23T05:58:01;96284.38;;;19.71;80.15
47274;BME280;33007;49.082;19.306;2022-07-23T06:00:27;96298.00;;;19.82;81.45
47274;BME280;33007;49.082;19.306;2022-07-23T06:02:53;96258.59;;;19.69;81.12
47274;BME280;33007;49.082;19.306;2022-07-23T06:05:19;96292.34;;;19.94;80.29
47274;BME280;33007;49.082;19.306;2022-07-23T06:07:45;96277.38;;;19.89;80.04
47274;BME280;33007;49.082;19.306;2022-07-23T06:10:10;96297.84;;;20.12;79.49
47274;BME280;33007;49.082;19.306;2022-07-23T06:12:36;96264.25;;;19.95;79.55
47274;BME280;33007;49.082;19.306;2022-07-23T06:15:03;96293.75;;;20.19;79.83
47274;BME280;33007;49.082;19.306;2022-07-23T06:17:28;96268.03;;;20.11;79.60
47274;BME280;33007;49.082;19.306;2022-07-23T06:19:55;96281.38;;;20.26;79.06
47274;BME280;33007;49.082;19.306;2022-07-23T06:22:21;96264.69;;;20.18;78.91
47274;BME280;33007;49.082;19.306;2022-07-23T06:24:47;96246.97;;;20.13;79.40
47274;BME280;33007;49.082;19.306;2022-07-23T06:27:12;96251.03;;;20.26;78.97
47274;BME280;33007;49.082;19.306;2022-07-23T06:29:38;96245.09;;;20.22;79.14
47274;BME280;33007;49.082;19.306;2022-07-23T06:32:06;96279.28;;;20.45;78.68
47274;BME280;33007;49.082;19.306;2022-07-23T06:34:32;96262.84;;;20.39;78.53
47274;BME280;33007;49.082;19.306;2022-07-23T06:36:57;96258.97;;;20.48;78.25
47274;BME280;33007;49.082;19.306;2022-07-23T06:39:22;96260.06;;;20.58;77.90
47274;BME280;33007;49.082;19.306;2022-07-23T06:41:48;96233.84;;;20.52;77.86
47274;BME280;33007;49.082;19.306;2022-07-23T06:44:14;96262.53;;;20.75;77.90
47274;BME280;33007;49.082;19.306;2022-07-23T06:46:39;96276.19;;;21.00;77.30
47274;BME280;33007;49.082;19.306;2022-07-23T06:49:05;96253.47;;;20.93;75.72
47274;BME280;33007;49.082;19.306;2022-07-23T06:51:30;96250.69;;;20.93;75.50
47274;BME280;33007;49.082;19.306;2022-07-23T06:53:56;96252.50;;;21.04;75.36
47274;BME280;33007;49.082;19.306;2022-07-23T06:56:21;96234.03;;;20.99;75.42
47274;BME280;33007;49.082;19.306;2022-07-23T06:58:47;96240.16;;;21.18;75.51
47274;BME280;33007;49.082;19.306;2022-07-23T07:01:13;96253.69;;;21.49;74.39
47274;BME280;33007;49.082;19.306;2022-07-23T07:03:38;96246.09;;;21.62;73.58
47274;BME280;33007;49.082;19.306;2022-07-23T07:06:04;96253.09;;;21.77;73.00
47274;BME280;33007;49.082;19.306;2022-07-23T07:08:30;96256.88;;;22.00;72.29
47274;BME280;33007;49.082;19.306;2022-07-23T07:10:55;96223.06;;;21.94;72.20
47274;BME280;33007;49.082;19.306;2022-07-23T07:13:21;96251.72;;;22.17;72.04
47274;BME280;33007;49.082;19.306;2022-07-23T07:15:46;96245.13;;;22.07;71.56
47274;BME280;33007;49.082;19.306;2022-07-23T07:18:12;96249.59;;;22.10;71.40
47274;BME280;33007;49.082;19.306;2022-07-23T07:20:37;96232.84;;;21.95;71.84
47274;BME280;33007;49.082;19.306;2022-07-23T07:23:03;96224.16;;;21.91;71.81
47274;BME280;33007;49.082;19.306;2022-07-23T07:25:28;96232.69;;;22.14;71.38
47274;BME280;33007;49.082;19.306;2022-07-23T07:27:54;96242.63;;;22.30;71.45
47274;BME280;33007;49.082;19.306;2022-07-23T07:30:20;96226.25;;;22.32;70.29
47274;BME280;33007;49.082;19.306;2022-07-23T07:32:45;96231.69;;;22.45;70.29
47274;BME280;33007;49.082;19.306;2022-07-23T07:35:11;96246.25;;;22.67;69.51
47274;BME280;33007;49.082;19.306;2022-07-23T07:37:37;96237.53;;;22.63;69.73
47274;BME280;33007;49.082;19.306;2022-07-23T07:40:03;96238.06;;;22.82;69.02
47274;BME280;33007;49.082;19.306;2022-07-23T07:42:28;96248.94;;;22.80;69.60
47274;BME280;33007;49.082;19.306;2022-07-23T07:44:54;96218.28;;;22.78;68.70
47274;BME280;33007;49.082;19.306;2022-07-23T07:47:20;96207.06;;;22.84;68.69
47274;BME280;33007;49.082;19.306;2022-07-23T07:49:45;96215.84;;;22.95;68.04
47274;BME280;33007;49.082;19.306;2022-07-23T07:52:11;96202.78;;;22.96;67.98
47274;BME280;33007;49.082;19.306;2022-07-23T07:54:37;96226.69;;;23.22;67.78
47274;BME280;33007;49.082;19.306;2022-07-23T07:57:02;96206.41;;;23.19;68.19
47274;BME280;33007;49.082;19.306;2022-07-23T07:59:28;96226.84;;;23.45;68.04
47274;BME280;33007;49.082;19.306;2022-07-23T08:01:54;96201.66;;;23.35;66.20
47274;BME280;33007;49.082;19.306;2022-07-23T08:04:19;96205.59;;;23.47;66.71
47274;BME280;33007;49.082;19.306;2022-07-23T08:06:45;96195.81;;;23.54;65.62
47274;BME280;33007;49.082;19.306;2022-07-23T08:09:11;96216.81;;;23.78;64.43
47274;BME280;33007;49.082;19.306;2022-07-23T08:11:36;96210.38;;;23.91;65.26
47274;BME280;33007;49.082;19.306;2022-07-23T08:14:02;96178.19;;;23.80;64.88
47274;BME280;33007;49.082;19.306;2022-07-23T08:16:28;96188.63;;;24.02;60.92
47274;BME280;33007;49.082;19.306;2022-07-23T08:18:53;96185.28;;;24.12;60.39
47274;BME280;33007;49.082;19.306;2022-07-23T08:21:19;96199.72;;;24.33;60.54
47274;BME280;33007;49.082;19.306;2022-07-23T08:23:45;96198.66;;;24.51;60.06
47274;BME280;33007;49.082;19.306;2022-07-23T08:26:10;96197.16;;;24.58;59.56
47274;BME280;33007;49.082;19.306;2022-07-23T08:28:36;96188.09;;;24.65;57.87
47274;BME280;33007;49.082;19.306;2022-07-23T08:31:01;96200.31;;;24.77;58.84
47274;BME280;33007;49.082;19.306;2022-07-23T08:33:27;96174.19;;;24.80;58.09
47274;BME280;33007;49.082;19.306;2022-07-23T08:35:53;96149.03;;;24.78;57.99
47274;BME280;33007;49.082;19.306;2022-07-23T08:38:21;96180.09;;;25.15;56.86
47274;BME280;33007;49.082;19.306;2022-07-23T08:40:50;96190.22;;;25.28;56.76
47274;BME280;33007;49.082;19.306;2022-07-23T08:43:19;96161.88;;;25.29;55.54
47274;BME280;33007;49.082;19.306;2022-07-23T08:45:48;96150.34;;;25.41;54.40
47274;BME280;33007;49.082;19.306;2022-07-23T08:48:21;96152.31;;;25.55;54.77
47274;BME280;33007;49.082;19.306;2022-07-23T08:50:52;96128.81;;;25.49;53.22
47274;BME280;33007;49.082;19.306;2022-07-23T08:53:20;96140.75;;;25.74;54.83
47274;BME280;33007;49.082;19.306;2022-07-23T08:55:47;96161.00;;;26.00;54.71
47274;BME280;33007;49.082;19.306;2022-07-23T08:58:13;96148.50;;;26.08;53.49
47274;BME280;33007;49.082;19.306;2022-07-23T09:00:39;96152.53;;;26.15;54.54
47274;BME280;33007;49.082;19.306;2022-07-23T09:03:05;96131.56;;;26.14;53.84
47274;BME280;33007;49.082;19.306;2022-07-23T09:05:31;96141.78;;;26.36;53.24
47274;BME280;33007;49.082;19.306;2022-07-23T09:10:46;96145.78;;;26.68;52.38
47274;BME280;33007;49.082;19.306;2022-07-23T09:13:32;96149.84;;;26.75;52.47
47274;BME280;33007;49.082;19.306;2022-07-23T09:16:16;96132.16;;;26.80;52.06
47274;BME280;33007;49.082;19.306;2022-07-23T09:18:54;96124.19;;;26.94;50.50
47274;BME280;33007;49.082;19.306;2022-07-23T09:21:21;96144.22;;;27.17;51.81
47274;BME280;33007;49.082;19.306;2022-07-23T09:23:59;96124.28;;;27.21;50.62
47274;BME280;33007;49.082;19.306;2022-07-23T09:29:12;96130.22;;;27.52;50.07
47274;BME280;33007;49.082;19.306;2022-07-23T09:34:23;96117.03;;;27.79;48.92
47274;BME280;33007;49.082;19.306;2022-07-23T09:36:51;96131.22;;;28.01;47.97
47274;BME280;33007;49.082;19.306;2022-07-23T09:39:28;96126.34;;;27.91;46.53
47274;BME280;33007;49.082;19.306;2022-07-23T09:41:55;96115.47;;;27.96;47.14
47274;BME280;33007;49.082;19.306;2022-07-23T09:44:21;96129.25;;;28.20;45.47
47274;BME280;33007;49.082;19.306;2022-07-23T09:46:49;96122.84;;;28.37;45.95
47274;BME280;33007;49.082;19.306;2022-07-23T09:49:20;96108.75;;;28.35;43.45
47274;BME280;33007;49.082;19.306;2022-07-23T09:51:50;96125.53;;;28.55;42.61
47274;BME280;33007;49.082;19.306;2022-07-23T09:54:37;96117.06;;;28.72;42.16
47274;BME280;33007;49.082;19.306;2022-07-23T09:57:09;96111.31;;;28.80;41.40
47274;BME280;33007;49.082;19.306;2022-07-23T09:59:39;96104.41;;;28.90;42.03
47274;BME280;33007;49.082;19.306;2022-07-23T10:02:06;96115.16;;;28.84;42.56
47274;BME280;33007;49.082;19.306;2022-07-23T10:04:32;96103.06;;;28.62;43.67
47274;BME280;33007;49.082;19.306;2022-07-23T10:07:00;96104.25;;;28.69;43.35
47274;BME280;33007;49.082;19.306;2022-07-23T10:09:31;96100.31;;;28.82;42.19
47274;BME280;33007;49.082;19.306;2022-07-23T10:11:59;96092.66;;;29.11;41.65
47274;BME280;33007;49.082;19.306;2022-07-23T10:14:35;96077.03;;;29.28;41.16
47274;BME280;33007;49.082;19.306;2022-07-23T10:17:02;96092.16;;;29.63;41.54
47274;BME280;33007;49.082;19.306;2022-07-23T10:19:29;96074.06;;;29.55;39.89
47274;BME280;33007;49.082;19.306;2022-07-23T10:22:01;96085.59;;;29.90;39.67
47274;BME280;33007;49.082;19.306;2022-07-23T10:30:07;96077.81;;;30.41;39.88
47274;BME280;33007;49.082;19.306;2022-07-23T10:35:24;96045.81;;;30.22;38.29
47274;BME280;33007;49.082;19.306;2022-07-23T10:37:55;96040.16;;;30.32;38.22
47274;BME280;33007;49.082;19.306;2022-07-23T10:40:26;96055.84;;;30.47;38.32
47274;BME280;33007;49.082;19.306;2022-07-23T10:42:59;96060.44;;;30.64;38.09
47274;BME280;33007;49.082;19.306;2022-07-23T10:45:32;96055.31;;;30.60;36.49
47274;BME280;33007;49.082;19.306;2022-07-23T10:48:17;96068.78;;;30.95;37.17
47274;BME280;33007;49.082;19.306;2022-07-23T10:51:08;96067.13;;;31.13;37.68
47274;BME280;33007;49.082;19.306;2022-07-23T10:54:00;96065.47;;;30.98;37.51
47274;BME280;33007;49.082;19.306;2022-07-23T10:57:04;96066.94;;;30.99;37.67
47274;BME280;33007;49.082;19.306;2022-07-23T10:59:31;96042.22;;;30.96;36.72
47274;BME280;33007;49.082;19.306;2022-07-23T11:02:22;96033.59;;;31.15;35.99
47274;BME280;33007;49.082;19.306;2022-07-23T11:04:52;96058.47;;;31.54;36.54
47274;BME280;33007;49.082;19.306;2022-07-23T11:07:19;96045.56;;;31.72;36.14
47274;BME280;33007;49.082;19.306;2022-07-23T11:09:44;96048.16;;;31.92;36.90
47274;BME280;33007;49.082;19.306;2022-07-23T11:15:09;96044.09;;;31.15;35.62
47274;BME280;33007;49.082;19.306;2022-07-23T11:20:21;96022.69;;;30.65;36.84
47274;BME280;33007;49.082;19.306;2022-07-23T11:22:49;96039.78;;;30.47;36.26
47274;BME280;33007;49.082;19.306;2022-07-23T11:27:50;96003.06;;;30.00;37.25
47274;BME280;33007;49.082;19.306;2022-07-23T11:32:54;96031.00;;;30.10;38.31
47274;BME280;33007;49.082;19.306;2022-07-23T11:35:44;95993.31;;;29.80;38.69
47274;BME280;33007;49.082;19.306;2022-07-23T11:40:41;96016.41;;;29.81;39.90
47274;BME280;33007;49.082;19.306;2022-07-23T11:43:08;96000.91;;;29.58;39.43
47274;BME280;33007;49.082;19.306;2022-07-23T11:48:17;96006.88;;;29.74;40.40
47274;BME280;33007;49.082;19.306;2022-07-23T11:50:43;95979.00;;;29.55;40.87
47274;BME280;33007;49.082;19.306;2022-07-23T11:53:09;95975.88;;;29.50;41.12
47274;BME280;33007;49.082;19.306;2022-07-23T11:55:34;95968.78;;;29.69;42.50
47274;BME280;33007;49.082;19.306;2022-07-23T11:58:00;95982.13;;;30.01;41.10
47274;BME280;33007;49.082;19.306;2022-07-23T12:00:29;95969.66;;;30.57;41.87
47274;BME280;33007;49.082;19.306;2022-07-23T12:02:57;95989.38;;;31.14;39.17
47274;BME280;33007;49.082;19.306;2022-07-23T12:05:27;95979.41;;;31.22;37.68
47274;BME280;33007;49.082;19.306;2022-07-23T12:07:55;95986.41;;;31.00;38.82
47274;BME280;33007;49.082;19.306;2022-07-23T12:10:24;95985.91;;;30.92;36.57
47274;BME280;33007;49.082;19.306;2022-07-23T12:12:51;95975.75;;;30.75;37.55
47274;BME280;33007;49.082;19.306;2022-07-23T12:15:28;95971.28;;;30.60;39.25
47274;BME280;33007;49.082;19.306;2022-07-23T12:17:56;95963.28;;;30.45;39.67
47274;BME280;33007;49.082;19.306;2022-07-23T12:20:25;95946.97;;;30.20;40.01
47274;BME280;33007;49.082;19.306;2022-07-23T12:22:56;95967.16;;;30.18;41.45
47274;BME280;33007;49.082;19.306;2022-07-23T12:25:26;95961.91;;;30.13;42.28
47274;BME280;33007;49.082;19.306;2022-07-23T12:28:08;95956.63;;;30.07;39.85
47274;BME280;33007;49.082;19.306;2022-07-23T12:30:47;95936.56;;;29.89;41.72
47274;BME280;33007;49.082;19.306;2022-07-23T12:33:15;95925.56;;;29.82;38.24
47274;BME280;33007;49.082;19.306;2022-07-23T12:35:46;95920.16;;;29.74;42.02
47274;BME280;33007;49.082;19.306;2022-07-23T12:38:20;95946.03;;;29.84;38.70
47274;BME280;33007;49.082;19.306;2022-07-23T12:40:48;95915.50;;;30.10;39.68
47274;BME280;33007;49.082;19.306;2022-07-23T12:43:21;95946.56;;;30.35;38.60
47274;BME280;33007;49.082;19.306;2022-07-23T12:48:27;95931.41;;;30.83;35.49
47274;BME280;33007;49.082;19.306;2022-07-23T12:51:02;95906.78;;;31.38;36.27
47274;BME280;33007;49.082;19.306;2022-07-23T12:56:07;95907.59;;;31.52;37.59
47274;BME280;33007;49.082;19.306;2022-07-23T12:58:56;95894.41;;;31.20;34.18
47274;BME280;33007;49.082;19.306;2022-07-23T13:04:02;95901.72;;;31.13;36.72
47274;BME280;33007;49.082;19.306;2022-07-23T13:06:45;95887.34;;;30.95;36.96
47274;BME280;33007;49.082;19.306;2022-07-23T13:09:15;95866.50;;;31.10;37.19
47274;BME280;33007;49.082;19.306;2022-07-23T13:11:40;95873.84;;;31.39;36.42
47274;BME280;33007;49.082;19.306;2022-07-23T13:14:06;95890.28;;;32.17;34.59
47274;BME280;33007;49.082;19.306;2022-07-23T13:16:32;95873.09;;;32.73;32.97
47274;BME280;33007;49.082;19.306;2022-07-23T13:18:59;95855.75;;;32.91;31.18
47274;BME280;33007;49.082;19.306;2022-07-23T13:21:26;95856.31;;;33.01;33.28
47274;BME280;33007;49.082;19.306;2022-07-23T13:23:53;95832.88;;;33.24;31.95
47274;BME280;33007;49.082;19.306;2022-07-23T13:26:19;95859.03;;;33.81;32.74
47274;BME280;33007;49.082;19.306;2022-07-23T13:28:45;95840.19;;;34.13;31.71
47274;BME280;33007;49.082;19.306;2022-07-23T13:31:11;95834.72;;;34.31;30.91
47274;BME280;33007;49.082;19.306;2022-07-23T13:33:36;95836.53;;;33.95;32.45